createdAt,value
2023-02-21T00:02:33.099Z,4.20
2023-02-21T00:05:46.338Z,3.65
2023-02-21T00:08:59.416Z,3.95
2023-02-21T00:15:26.757Z,4.20
2023-02-21T00:18:39.840Z,4.15
2023-02-21T00:21:52.787Z,3.60
2023-02-21T00:28:18.825Z,3.83
2023-02-21T00:31:35.038Z,4.75
2023-02-21T00:34:47.980Z,4.63
2023-02-21T00:41:13.970Z,4.88
2023-02-21T00:44:27.619Z,5.72
2023-02-21T00:47:40.548Z,4.22
2023-02-21T00:50:53.656Z,4.70
2023-02-21T00:54:06.609Z,3.97
2023-02-21T01:00:37.284Z,4.63
2023-02-21T01:03:50.391Z,4.35
2023-02-21T01:07:07.154Z,3.88
2023-02-21T01:10:20.564Z,4.40
2023-02-21T01:13:33.734Z,3.63
2023-02-21T01:16:48.887Z,3.85
2023-02-21T01:20:03.074Z,4.70
2023-02-21T01:23:16.238Z,3.97
2023-02-21T01:26:29.391Z,3.88
2023-02-21T01:29:42.557Z,3.97
2023-02-21T01:32:55.446Z,4.85
2023-02-21T01:36:08.568Z,5.35
2023-02-21T01:42:34.603Z,4.60
2023-02-21T01:46:06.019Z,4.50
2023-02-21T01:49:31.950Z,4.70
2023-02-21T01:52:45.101Z,4.25
2023-02-21T01:55:59.990Z,4.55
2023-02-21T01:59:17.800Z,4.47
2023-02-21T02:02:47.325Z,4.53
2023-02-21T02:06:04.825Z,5.15
2023-02-21T02:09:34.051Z,5.97
2023-02-21T02:13:00.945Z,5.55
2023-02-21T02:16:08.859Z,6.13
2023-02-21T02:19:35.076Z,5.88
2023-02-21T02:22:49.739Z,5.13
2023-02-21T02:26:18.013Z,5.55
2023-02-21T02:29:41.427Z,5.13
2023-02-21T02:32:55.254Z,5.25
2023-02-21T02:36:01.185Z,6.05
2023-02-21T02:39:34.049Z,6.20
2023-02-21T02:42:41.933Z,6.20
2023-02-21T02:45:49.523Z,6.88
2023-02-21T02:48:56.779Z,5.82
2023-02-21T02:51:55.219Z,6.35
2023-02-21T02:55:23.751Z,6.20
2023-02-21T02:58:24.317Z,6.32
2023-02-21T03:01:43.715Z,5.80
2023-02-21T03:05:01.822Z,6.28
2023-02-21T03:08:22.444Z,8.10
2023-02-21T03:11:23.591Z,9.50
2023-02-21T03:14:25.091Z,8.77
2023-02-21T03:17:26.037Z,7.00
2023-02-21T03:20:25.328Z,7.68
2023-02-21T03:23:25.705Z,7.05
2023-02-21T03:26:23.521Z,7.43
2023-02-21T03:29:22.176Z,9.48
2023-02-21T03:32:26.935Z,15.65
2023-02-21T03:35:29.946Z,12.68
2023-02-21T03:38:30.368Z,10.85
2023-02-21T03:41:28.128Z,10.23
2023-02-21T03:44:25.984Z,8.45
2023-02-21T03:47:23.676Z,7.88
2023-02-21T03:50:21.517Z,7.53
2023-02-21T03:53:19.136Z,6.55
2023-02-21T03:56:18.017Z,6.10
2023-02-21T03:59:15.776Z,6.03
2023-02-21T04:02:13.605Z,5.85
2023-02-21T04:05:11.479Z,5.90
2023-02-21T04:08:09.267Z,6.60
2023-02-21T04:11:07.350Z,6.20
2023-02-21T04:14:05.212Z,6.82
2023-02-21T04:17:02.876Z,8.40
2023-02-21T04:20:00.778Z,8.35
2023-02-21T04:23:03.469Z,10.02
2023-02-21T04:26:01.770Z,10.95
2023-02-21T04:28:59.445Z,9.75
2023-02-21T04:31:57.696Z,10.55
2023-02-21T04:34:55.462Z,10.48
2023-02-21T04:37:53.237Z,11.18
2023-02-21T04:40:51.008Z,12.25
2023-02-21T04:43:48.833Z,13.93
2023-02-21T04:46:46.473Z,15.68
2023-02-21T04:49:44.322Z,20.45
2023-02-21T04:52:42.130Z,22.55
2023-02-21T04:55:39.921Z,25.80
2023-02-21T04:58:45.264Z,36.17
2023-02-21T05:01:43.758Z,37.08
2023-02-21T05:04:43.491Z,41.72
2023-02-21T05:07:43.192Z,49.95
2023-02-21T05:10:45.627Z,55.13
2023-02-21T05:13:44.372Z,56.45
2023-02-21T05:16:42.082Z,52.92
2023-02-21T05:19:39.995Z,55.70
2023-02-21T05:22:40.764Z,56.42
2023-02-21T05:25:38.571Z,62.80
2023-02-21T05:28:36.776Z,64.75
2023-02-21T05:31:34.851Z,75.32
2023-02-21T05:34:32.552Z,73.18
2023-02-21T05:37:31.437Z,70.95
2023-02-21T05:40:29.203Z,72.22
2023-02-21T05:43:29.105Z,71.90
2023-02-21T05:46:30.141Z,68.70
2023-02-21T05:49:28.483Z,67.50
2023-02-21T05:52:26.112Z,62.55
2023-02-21T05:55:24.411Z,63.05
2023-02-21T05:58:22.078Z,66.45
2023-02-21T06:01:19.854Z,61.92
2023-02-21T06:04:18.533Z,59.67
2023-02-21T06:07:16.408Z,57.85
2023-02-21T06:10:14.876Z,59.40
2023-02-21T06:13:12.751Z,55.22
2023-02-21T06:16:10.525Z,64.18
2023-02-21T06:19:09.960Z,60.05
2023-02-21T06:22:07.941Z,57.03
2023-02-21T06:25:06.008Z,54.13
2023-02-21T06:28:03.785Z,55.50
2023-02-21T06:31:01.614Z,55.38
2023-02-21T06:33:59.838Z,52.20
2023-02-21T06:36:57.875Z,54.38
2023-02-21T06:39:55.838Z,54.83
2023-02-21T06:42:53.645Z,48.05
2023-02-21T06:45:52.021Z,48.83
2023-02-21T06:48:50.830Z,49.78
2023-02-21T06:51:48.680Z,57.90
2023-02-21T06:54:46.614Z,53.47
2023-02-21T06:57:44.305Z,51.83
2023-02-21T07:00:42.176Z,45.90
2023-02-21T07:03:41.228Z,44.80
2023-02-21T07:06:39.072Z,48.58
2023-02-21T07:09:36.722Z,40.97
2023-02-21T07:12:34.496Z,38.58
2023-02-21T07:15:32.210Z,36.90
2023-02-21T07:18:30.153Z,37.50
2023-02-21T07:21:28.633Z,41.20
2023-02-21T07:24:26.453Z,38.85
2023-02-21T07:27:24.215Z,40.03
2023-02-21T07:30:22.273Z,42.10
2023-02-21T07:33:20.153Z,42.28
2023-02-21T07:36:18.524Z,39.03
2023-02-21T07:39:16.238Z,37.70
2023-02-21T07:42:14.008Z,36.95
2023-02-21T07:45:12.284Z,34.47
2023-02-21T07:48:10.142Z,33.55
2023-02-21T07:51:09.059Z,31.98
2023-02-21T07:54:06.939Z,32.03
2023-02-21T07:57:04.652Z,32.83
2023-02-21T08:00:02.601Z,33.80
2023-02-21T08:03:00.826Z,29.70
2023-02-21T08:06:00.376Z,29.02
2023-02-21T08:08:58.502Z,24.73
2023-02-21T08:11:56.254Z,22.92
2023-02-21T08:14:53.953Z,22.92
2023-02-21T08:17:52.395Z,20.95
2023-02-21T08:20:51.982Z,18.55
2023-02-21T08:23:52.592Z,17.92
2023-02-21T08:26:50.324Z,17.00
2023-02-21T08:29:52.901Z,17.55
2023-02-21T08:32:51.723Z,15.65
2023-02-21T08:35:49.544Z,16.90
2023-02-21T08:38:47.603Z,17.27
2023-02-21T08:41:48.652Z,18.48
2023-02-21T08:44:47.772Z,17.27
2023-02-21T08:47:45.842Z,15.68
2023-02-21T08:50:43.586Z,16.27
2023-02-21T08:53:41.431Z,15.48
2023-02-21T08:56:39.120Z,14.10
2023-02-21T08:59:43.044Z,14.20
2023-02-21T09:02:41.010Z,14.02
2023-02-21T09:05:40.028Z,13.70
2023-02-21T09:08:39.070Z,12.35
2023-02-21T09:11:36.909Z,13.32
2023-02-21T09:14:36.587Z,12.52
2023-02-21T09:17:35.058Z,14.40
2023-02-21T09:20:32.795Z,16.50
2023-02-21T09:23:32.308Z,14.18
2023-02-21T09:26:33.514Z,14.90
2023-02-21T09:29:45.330Z,15.40
2023-02-21T09:32:43.900Z,17.45
2023-02-21T09:35:41.738Z,18.88
2023-02-21T09:38:42.456Z,19.30
2023-02-21T09:41:44.026Z,21.30
2023-02-21T09:44:42.592Z,28.58
2023-02-21T09:47:41.125Z,28.10
2023-02-21T09:50:49.622Z,27.75
2023-02-21T09:53:49.622Z,26.25
2023-02-21T09:56:47.407Z,33.13
2023-02-21T09:59:45.739Z,40.88
2023-02-21T10:03:04.242Z,43.45
2023-02-21T10:06:28.150Z,44.42
2023-02-21T10:09:39.155Z,42.78
2023-02-21T10:12:46.864Z,46.38
2023-02-21T10:15:51.950Z,40.70
2023-02-21T10:19:04.338Z,41.22
2023-02-21T10:22:11.390Z,47.22
2023-02-21T10:25:23.884Z,48.45
2023-02-21T10:28:25.237Z,46.70
2023-02-21T10:31:33.152Z,46.45
2023-02-21T10:34:33.183Z,52.30
2023-02-21T10:37:41.800Z,59.05
2023-02-21T10:40:44.708Z,58.35
2023-02-21T10:43:49.322Z,56.85
2023-02-21T10:46:55.333Z,55.10
2023-02-21T10:50:09.843Z,59.17
2023-02-21T10:53:23.348Z,65.07
2023-02-21T10:56:25.097Z,74.47
2023-02-21T10:59:29.180Z,72.93
2023-02-21T11:02:34.724Z,84.95
2023-02-21T11:05:33.217Z,85.32
2023-02-21T11:08:41.475Z,91.80
2023-02-21T11:11:42.608Z,95.78
2023-02-21T11:14:40.472Z,98.47
2023-02-21T11:17:38.316Z,96.82
2023-02-21T11:20:36.105Z,96.82
2023-02-21T11:23:33.846Z,102.95
2023-02-21T11:26:38.372Z,104.80
2023-02-21T11:29:36.914Z,106.10
2023-02-21T11:32:39.381Z,107.60
2023-02-21T11:35:45.266Z,102.95
2023-02-21T11:38:46.600Z,105.78
2023-02-21T11:41:54.453Z,105.40
2023-02-21T11:45:14.829Z,108.15
2023-02-21T11:48:18.557Z,102.97
2023-02-21T11:51:37.488Z,98.40
2023-02-21T11:54:35.381Z,96.78
2023-02-21T11:57:58.013Z,107.57
2023-02-21T12:01:18.004Z,103.13
2023-02-21T12:04:35.572Z,106.30
2023-02-21T12:07:53.146Z,101.53
2023-02-21T12:11:11.867Z,102.20
2023-02-21T12:14:40.884Z,102.75
2023-02-21T12:18:01.678Z,100.88
2023-02-21T12:21:33.354Z,102.03
2023-02-21T12:24:47.271Z,92.75
2023-02-21T12:27:59.385Z,88.30
2023-02-21T12:31:19.853Z,88.60
2023-02-21T12:34:48.430Z,86.60
2023-02-21T12:37:57.505Z,89.25
2023-02-21T12:41:09.974Z,83.78
2023-02-21T12:44:15.938Z,84.07
2023-02-21T12:47:24.797Z,81.43
2023-02-21T12:50:27.177Z,76.88
2023-02-21T12:53:42.440Z,70.23
2023-02-21T12:56:53.716Z,60.13
2023-02-21T13:00:18.387Z,56.17
2023-02-21T13:03:40.923Z,53.47
2023-02-21T13:09:50.630Z,46.40
2023-02-21T13:13:01.494Z,49.47
2023-02-21T13:16:02.903Z,53.25
2023-02-21T13:19:05.167Z,40.08
2023-02-21T13:22:53.433Z,33.30
2023-02-21T13:26:16.110Z,31.65
2023-02-21T13:29:32.718Z,34.05
2023-02-21T13:32:39.052Z,32.70
2023-02-21T13:35:39.371Z,33.25
2023-02-21T13:38:37.051Z,34.83
2023-02-21T13:41:46.224Z,33.92
2023-02-21T13:44:48.198Z,32.70
2023-02-21T13:48:15.601Z,29.92
2023-02-21T13:51:48.536Z,30.30
2023-02-21T13:55:20.066Z,28.10
2023-02-21T13:58:33.055Z,27.27
2023-02-21T14:07:57.318Z,23.38
2023-02-21T14:10:59.534Z,25.35
2023-02-21T14:14:05.513Z,23.88
2023-02-21T14:17:06.608Z,22.35
2023-02-21T14:20:06.622Z,23.08
2023-02-21T14:23:05.946Z,23.30
2023-02-21T14:26:05.511Z,22.55
2023-02-21T14:29:14.867Z,26.08
2023-02-21T14:32:24.225Z,27.23
2023-02-21T14:35:30.836Z,25.15
2023-02-21T14:38:33.509Z,27.90
2023-02-21T14:41:51.127Z,25.45
2023-02-21T14:45:15.825Z,25.33
2023-02-21T14:48:34.041Z,24.52
2023-02-21T14:51:57.561Z,23.63
2023-02-21T14:55:24.229Z,23.92
2023-02-21T14:58:45.772Z,25.38
2023-02-21T15:02:16.714Z,21.77
2023-02-21T15:05:22.141Z,22.05
2023-02-21T15:08:24.350Z,19.60
2023-02-21T15:11:28.997Z,18.75
2023-02-21T15:14:56.080Z,16.17
2023-02-21T15:18:08.676Z,15.02
2023-02-21T15:21:22.429Z,15.90
2023-02-21T15:24:20.249Z,16.67
2023-02-21T15:27:20.840Z,18.02
2023-02-21T15:30:28.338Z,18.73
2023-02-21T15:33:28.427Z,17.05
2023-02-21T15:50:53.259Z,16.38
2023-02-21T15:54:24.214Z,17.05
2023-02-21T15:57:25.343Z,16.77
2023-02-21T16:00:29.435Z,18.02
2023-02-21T16:03:45.223Z,17.90
2023-02-21T16:06:55.153Z,14.52
2023-02-21T16:10:02.326Z,12.52
2023-02-21T16:13:02.251Z,12.18
2023-02-21T16:16:01.157Z,11.50
2023-02-21T16:18:58.966Z,12.80
2023-02-21T16:22:21.632Z,11.52
2023-02-21T16:28:19.032Z,10.93
2023-02-21T16:31:25.631Z,12.30
2023-02-21T16:34:25.418Z,12.20
2023-02-21T16:37:23.780Z,13.48
2023-02-21T16:40:25.607Z,14.07
2023-02-21T16:43:26.891Z,14.20
2023-02-21T16:46:29.970Z,13.80
2023-02-21T16:49:28.194Z,13.18
2023-02-21T16:52:29.028Z,12.13
2023-02-21T16:55:27.247Z,12.88
2023-02-21T16:58:35.728Z,13.40
2023-02-21T17:01:34.765Z,12.23
2023-02-21T17:04:34.462Z,12.38
2023-02-21T17:07:32.343Z,10.98
2023-02-21T17:10:30.227Z,10.85
2023-02-21T17:13:27.968Z,9.88
2023-02-21T17:16:25.855Z,13.70
2023-02-21T17:19:25.099Z,12.05
2023-02-21T17:22:22.989Z,10.63
2023-02-21T17:25:22.508Z,12.02
2023-02-21T17:28:20.773Z,10.98
2023-02-21T17:31:19.374Z,9.48
2023-02-21T17:34:17.345Z,8.70
2023-02-21T17:37:15.084Z,9.35
2023-02-21T17:40:12.984Z,13.38
2023-02-21T17:43:10.754Z,10.80
2023-02-21T17:46:12.190Z,8.48
2023-02-21T17:49:10.030Z,10.13
2023-02-21T17:52:07.850Z,10.63
2023-02-21T17:55:08.361Z,9.63
2023-02-21T17:58:06.921Z,9.75
2023-02-21T18:01:04.924Z,11.25
2023-02-21T18:04:02.882Z,11.13
2023-02-21T18:07:03.589Z,10.95
2023-02-21T18:10:03.725Z,11.73
2023-02-21T18:13:01.422Z,9.60
2023-02-21T18:16:01.949Z,8.85
2023-02-21T18:18:59.770Z,6.32
2023-02-21T18:21:57.614Z,5.70
2023-02-21T18:24:55.335Z,6.63
2023-02-21T18:27:53.392Z,6.65
2023-02-21T18:30:52.320Z,5.75
2023-02-21T18:33:50.175Z,6.72
2023-02-21T18:36:49.680Z,6.88
2023-02-21T18:39:47.532Z,5.15
2023-02-21T18:42:45.358Z,4.85
2023-02-21T18:45:43.150Z,5.43
2023-02-21T18:48:46.087Z,5.05
2023-02-21T18:51:44.002Z,5.60
2023-02-21T18:54:50.834Z,4.57
2023-02-21T18:57:48.619Z,4.20
2023-02-21T19:00:47.616Z,4.80
2023-02-21T19:03:45.790Z,7.25
2023-02-21T19:06:43.821Z,5.57
2023-02-21T19:09:42.714Z,6.15
2023-02-21T19:12:40.457Z,6.05
2023-02-21T19:15:38.363Z,4.78
2023-02-21T19:18:36.129Z,4.13
2023-02-21T19:21:34.643Z,3.35
2023-02-21T19:24:32.963Z,5.63
2023-02-21T19:27:30.802Z,7.00
2023-02-21T19:30:34.197Z,5.60
2023-02-21T19:36:29.526Z,5.20
2023-02-21T19:39:27.366Z,5.55
2023-02-21T19:42:25.085Z,6.10
2023-02-21T19:45:22.895Z,5.63
2023-02-21T19:48:22.282Z,5.35
2023-02-21T19:51:23.196Z,5.05
2023-02-21T19:54:23.377Z,4.65
2023-02-21T19:57:21.231Z,4.15
2023-02-21T20:00:20.616Z,5.47
2023-02-21T20:03:18.491Z,6.07
2023-02-21T20:06:17.245Z,4.63
2023-02-21T20:09:15.275Z,3.60
2023-02-21T20:12:12.993Z,3.22
2023-02-21T20:15:11.497Z,3.10
2023-02-21T20:18:09.549Z,3.92
2023-02-21T20:21:07.319Z,3.78
2023-02-21T20:24:07.520Z,2.90
2023-02-21T20:27:05.831Z,2.78
2023-02-21T20:30:05.717Z,3.10
2023-02-21T20:33:03.845Z,2.50
2023-02-21T20:36:01.680Z,2.28
2023-02-21T20:38:59.584Z,2.40
2023-02-21T20:41:59.828Z,2.40
2023-02-21T20:44:57.811Z,2.40
2023-02-21T20:47:55.783Z,2.17
2023-02-21T20:50:54.382Z,2.15
2023-02-21T20:53:52.893Z,2.35
2023-02-21T20:56:55.358Z,2.45
2023-02-21T20:59:53.094Z,2.93
2023-02-21T21:02:52.335Z,2.60
2023-02-21T21:05:51.088Z,3.10
2023-02-21T21:08:49.536Z,2.97
2023-02-21T21:11:48.334Z,2.70
2023-02-21T21:14:49.046Z,3.80
2023-02-21T21:17:47.213Z,3.10
2023-02-21T21:20:45.109Z,2.50
2023-02-21T21:23:43.489Z,2.30
2023-02-21T21:26:51.481Z,1.80
2023-02-21T21:29:49.970Z,1.90
2023-02-21T21:32:47.803Z,1.90
2023-02-21T21:35:45.674Z,2.08
2023-02-21T21:38:43.540Z,2.58
2023-02-21T21:41:46.959Z,3.00
2023-02-21T21:47:46.213Z,3.00
2023-02-21T21:50:44.060Z,3.85
2023-02-21T21:53:42.027Z,2.90
2023-02-21T21:56:41.011Z,2.20
2023-02-21T21:59:41.457Z,2.10
2023-02-21T22:02:39.327Z,2.50
2023-02-21T22:05:37.174Z,2.83
2023-02-21T22:08:34.977Z,2.70
2023-02-21T22:11:33.340Z,2.33
2023-02-21T22:14:31.262Z,2.53
2023-02-21T22:17:28.968Z,2.40
2023-02-21T22:20:28.957Z,2.88
2023-02-21T22:23:26.785Z,2.90
2023-02-21T22:26:26.034Z,2.53
2023-02-21T22:29:24.089Z,2.97
2023-02-21T22:32:21.972Z,2.67
2023-02-21T22:35:21.517Z,2.30
2023-02-21T22:38:19.762Z,2.25
2023-02-21T22:41:26.109Z,2.10
2023-02-21T22:44:25.404Z,2.13
2023-02-21T22:47:23.116Z,2.10
2023-02-21T22:50:23.621Z,2.97
2023-02-21T22:53:21.685Z,2.47
2023-02-21T22:56:24.294Z,2.38
2023-02-21T22:59:25.348Z,2.58
2023-02-21T23:02:23.184Z,3.53
2023-02-21T23:05:22.195Z,4.85
2023-02-21T23:08:23.225Z,4.53
2023-02-21T23:11:26.641Z,5.47
2023-02-21T23:17:22.842Z,5.53
2023-02-21T23:20:23.272Z,5.85
2023-02-21T23:23:27.800Z,5.97
2023-02-21T23:26:26.249Z,6.00
2023-02-21T23:29:26.987Z,7.93
2023-02-21T23:32:25.380Z,7.68
2023-02-21T23:35:23.471Z,8.20
2023-02-21T23:38:23.904Z,7.85
2023-02-21T23:41:21.620Z,7.82
2023-02-21T23:44:19.409Z,5.35
2023-02-21T23:47:17.450Z,5.28
2023-02-21T23:50:19.074Z,4.97
2023-02-21T23:53:19.441Z,5.03
2023-02-21T23:56:17.325Z,6.10
2023-02-21T23:59:16.993Z,5.85
